Detalii statie ROAGROLTAL [00001D0B]

Toti senzorii

Date Temperatura solului [C]Precipitatii [mm]Voltaj baterie [mV]Leaf Wetness [Min]HC Air temperature [C]HC Relative humidity [%]Punctul de roua [C]
medieminmaxsumaultimatimpmedieminmaxmediemediemin
2019-06-15 18:00:00 29.7 29.3 30 0 7158 23.36 23.15 23.7 74.88 18.4 17.6
2019-06-15 19:00:00 28.9 28.7 29.4 0 7080 23.03 21.55 23.66 76.23 18.4 17.1
2019-06-15 20:00:00 28.3 28 28.7 0 7000 20.89 20.35 21.42 97.81 20.4 20.1
2019-06-15 21:00:00 27.7 27.4 28 0 6932 20.41 20.23 20.59 100 20.3 20.2
2019-06-15 22:00:00 27.1 27 27.4 0 6826 20.59 20.17 21.4 96.34 19.8 19.2
2019-06-15 23:00:00 26.7 26.6 27 0 6786 20.36 19.92 21.12 99.5 20.2 19.9
2019-06-16 00:00:00 26.4 26.2 26.6 0 6786 19.9 19.76 20.1 99.91 19.8 19.5
2019-06-16 01:00:00 26 25.9 26.2 0 6796 18.92 18.46 19.87 99.99 18.8 18.4
2019-06-16 02:00:00 25.7 25.6 25.9 0 6796 18.55 18 19.09 100 18.5 18
2019-06-16 03:00:00 25.3 25.2 25.5 0 6786 17.96 17.49 18.67 100 17.9 17.4
2019-06-16 04:00:00 25.1 25 25.3 0 6786 17.7 17.58 17.88 100 17.6 17.5
2019-06-16 05:00:00 24.8 24.7 25 0 6766 17.6 17.44 17.73 100 17.5 17.4
2019-06-16 06:00:00 24.6 24.5 24.7 0 6844 18.8 17.57 20.23 100 18.7 17.5
2019-06-16 07:00:00 24.5 24.4 24.7 0 7040 22.47 20.58 23.63 87.15 20 19.7
2019-06-16 08:00:00 24.7 24.5 24.8 0 7246 25.4 23.78 26.67 77.73 21 20
2019-06-16 09:00:00 25 24.8 25.3 0 7236 28.17 27.02 29.06 71.85 22.4 21.5
2019-06-16 10:00:00 25.5 25.2 26 0 7236 29.92 28.95 30.56 66.63 22.8 22
2019-06-16 11:00:00 26.4 26.1 26.8 0 7226 31.05 30.1 31.98 62.55 22.8 22.5
2019-06-16 12:00:00 27.2 26.8 27.6 0 7226 32.52 31.68 32.86 56.07 22.4 21.4
2019-06-16 13:00:00 28 27.6 28.5 0 7226 32.91 32.19 33.6 51.98 21.5 19.9
2019-06-16 14:00:00 28.8 28.4 29.3 0 7226 32.9 31.91 33.67 47.79 20.1 18.3
2019-06-16 15:00:00 29.7 29.4 30 0 7226 32.89 31.68 33.87 45.42 19.2 17.4
2019-06-16 16:00:00 30.1 29.9 30.4 0 7216 33.32 32.88 34.05 45.9 19.8 18.1
2019-06-16 17:00:00 30.3 30.2 30.5 0 7166 32.79 32.58 33.21 43.41 18.4 17.6
2019-06-16 18:00:00 30.3 30.1 30.5 0 7186 31.79 29.7 32.71 48.52 19.3 17.8
2019-06-16 19:00:00 29.9 29.8 30.2 1.2 7080 22.37 21.42 25.47 92.55 20.8 18.6
2019-06-16 20:00:00 29.2 28.9 29.6 0 7000 21.93 21.43 22.44 100 21.9 21.4
2019-06-16 21:00:00 28.5 28.2 28.9 0 6922 22.06 21.4 22.65 100 22 21.4
2019-06-16 22:00:00 27.9 27.6 28.3 0 6854 20.51 19.62 21.3 100 20.4 19.6
2019-06-16 23:00:00 27.3 27 27.6 0 6834 19.46 19.24 19.77 100 19.4 19.2
2019-06-17 00:00:00 26.8 26.6 27.1 0 6826 19.07 18.48 19.45 100 19 18.4
2019-06-17 01:00:00 26.3 26.1 26.6 0 6796 18.75 18.28 19.15 100 18.7 18.2
2019-06-17 02:00:00 25.8 25.6 26.2 0.2 6786 18.68 18.34 19.03 100 18.6 18.3
2019-06-17 03:00:00 25.5 25.4 25.8 0 6786 18.73 18.34 18.96 100 18.6 18.3
2019-06-17 04:00:00 25.3 25.2 25.5 0 6786 18.25 17.91 18.68 100 18.2 17.9
2019-06-17 05:00:00 25 24.9 25.3 0 6786 18.22 18.02 18.64 100 18.1 18
2019-06-17 06:00:00 24.8 24.7 25 0 6864 19.17 18.58 19.92 100 19.1 18.5
2019-06-17 07:00:00 24.7 24.7 24.9 0 7080 22.37 20.27 24.76 98.59 22 20.2
2019-06-17 08:00:00 24.8 24.7 25 0 7236 26.05 24.92 27.26 83.47 22.8 22.1
2019-06-17 09:00:00 25.1 24.9 25.4 0 7236 28.53 27.51 29.5 72.75 23 22.4
2019-06-17 10:00:00 25.7 25.4 26.2 0 7236 30.28 29.49 31.48 68.51 23.6 23.2
2019-06-17 11:00:00 26.4 26.2 26.8 0 7226 31.61 30.41 32.97 63.24 23.5 22.3
2019-06-17 12:00:00 27.2 26.9 27.6 0 7226 32.97 32.28 33.61 58.58 23.5 22.3
2019-06-17 13:00:00 27.9 27.6 28.4 0 7226 32.91 32.28 33.55 55.6 22.6 21.5
2019-06-17 14:00:00 28.7 28.4 29 0 7226 32.92 31.86 34.33 56.44 22.9 21.8
2019-06-17 15:00:00 29.2 29.1 29.5 0 7226 32.66 31.11 34.25 56.09 22.6 21.8
2019-06-17 16:00:00 29.5 29.4 29.7 0 7226 32.52 31.86 33.29 52.83 21.4 20.8
2019-06-17 17:00:00 29.7 29.5 29.8 0 7226 31.19 30.31 32.4 57.34 21.5 20.7